sensor_id;sensor_type;location;lat;lon;timestamp;pressure;altitude;pressure_sealevel;temperature;humidity
11339;BME280;5724;42.684;23.252;2023-02-13T00:01:33;96050.72;;;-2.45;100.00
11339;BME280;5724;42.684;23.252;2023-02-13T00:03:59;96040.97;;;-2.51;100.00
11339;BME280;5724;42.684;23.252;2023-02-13T00:06:25;96050.63;;;-2.50;100.00
11339;BME280;5724;42.684;23.252;2023-02-13T00:08:51;96054.09;;;-2.49;100.00
11339;BME280;5724;42.684;23.252;2023-02-13T00:11:16;96059.69;;;-2.39;100.00
11339;BME280;5724;42.684;23.252;2023-02-13T00:13:42;96057.00;;;-2.39;100.00
11339;BME280;5724;42.684;23.252;2023-02-13T00:16:08;96052.56;;;-2.34;100.00
11339;BME280;5724;42.684;23.252;2023-02-13T00:18:35;96051.50;;;-2.33;100.00
11339;BME280;5724;42.684;23.252;2023-02-13T00:21:09;96060.91;;;-2.18;100.00
11339;BME280;5724;42.684;23.252;2023-02-13T00:23:36;96059.50;;;-2.09;100.00
11339;BME280;5724;42.684;23.252;2023-02-13T00:26:07;96062.75;;;-2.07;100.00
11339;BME280;5724;42.684;23.252;2023-02-13T00:28:33;96058.94;;;-2.23;100.00
11339;BME280;5724;42.684;23.252;2023-02-13T00:31:07;96056.66;;;-2.31;100.00
11339;BME280;5724;42.684;23.252;2023-02-13T00:33:33;96061.41;;;-2.21;100.00
11339;BME280;5724;42.684;23.252;2023-02-13T00:36:10;96052.31;;;-2.20;100.00
11339;BME280;5724;42.684;23.252;2023-02-13T00:38:37;96061.41;;;-2.21;100.00
11339;BME280;5724;42.684;23.252;2023-02-13T00:41:03;96057.19;;;-2.17;100.00
11339;BME280;5724;42.684;23.252;2023-02-13T00:43:29;96058.13;;;-2.23;100.00
11339;BME280;5724;42.684;23.252;2023-02-13T00:45:55;96056.13;;;-2.16;100.00
11339;BME280;5724;42.684;23.252;2023-02-13T00:48:23;96041.59;;;-2.20;100.00
11339;BME280;5724;42.684;23.252;2023-02-13T00:50:48;96064.03;;;-2.10;100.00
11339;BME280;5724;42.684;23.252;2023-02-13T00:53:14;96066.75;;;-2.33;100.00
11339;BME280;5724;42.684;23.252;2023-02-13T00:55:39;96064.44;;;-2.29;100.00
11339;BME280;5724;42.684;23.252;2023-02-13T00:58:04;96068.47;;;-2.15;100.00
11339;BME280;5724;42.684;23.252;2023-02-13T01:00:30;96070.22;;;-2.09;100.00
11339;BME280;5724;42.684;23.252;2023-02-13T01:02:55;96086.06;;;-2.19;100.00
11339;BME280;5724;42.684;23.252;2023-02-13T01:05:21;96079.09;;;-2.20;100.00
11339;BME280;5724;42.684;23.252;2023-02-13T01:07:46;96084.06;;;-2.12;100.00
11339;BME280;5724;42.684;23.252;2023-02-13T01:10:12;96073.78;;;-2.04;100.00
11339;BME280;5724;42.684;23.252;2023-02-13T01:12:37;96075.09;;;-2.06;100.00
11339;BME280;5724;42.684;23.252;2023-02-13T01:15:04;96072.97;;;-2.04;100.00
11339;BME280;5724;42.684;23.252;2023-02-13T01:17:29;96072.53;;;-2.01;100.00
11339;BME280;5724;42.684;23.252;2023-02-13T01:19:55;96070.53;;;-2.06;100.00
11339;BME280;5724;42.684;23.252;2023-02-13T01:22:20;96073.78;;;-2.04;100.00
11339;BME280;5724;42.684;23.252;2023-02-13T01:24:45;96071.84;;;-2.08;100.00
11339;BME280;5724;42.684;23.252;2023-02-13T01:27:11;96075.66;;;-2.04;100.00
11339;BME280;5724;42.684;23.252;2023-02-13T01:29:36;96078.56;;;-2.06;100.00
11339;BME280;5724;42.684;23.252;2023-02-13T01:32:02;96081.38;;;-2.00;100.00
11339;BME280;5724;42.684;23.252;2023-02-13T01:34:31;96071.84;;;-2.08;100.00
11339;BME280;5724;42.684;23.252;2023-02-13T01:36:56;96084.50;;;-2.04;100.00
11339;BME280;5724;42.684;23.252;2023-02-13T01:39:21;96085.31;;;-2.03;100.00
11339;BME280;5724;42.684;23.252;2023-02-13T01:41:47;96088.09;;;-1.98;100.00
11339;BME280;5724;42.684;23.252;2023-02-13T01:44:47;96089.03;;;-1.92;100.00
11339;BME280;5724;42.684;23.252;2023-02-13T01:47:37;96087.28;;;-1.98;100.00
11339;BME280;5724;42.684;23.252;2023-02-13T01:52:43;96088.91;;;-1.97;100.00
11339;BME280;5724;42.684;23.252;2023-02-13T01:55:10;96089.16;;;-1.99;100.00
11339;BME280;5724;42.684;23.252;2023-02-13T01:57:39;96090.22;;;-2.00;100.00
11339;BME280;5724;42.684;23.252;2023-02-13T02:00:08;96091.28;;;-2.01;100.00
11339;BME280;5724;42.684;23.252;2023-02-13T02:02:37;96084.66;;;-2.10;100.00
11339;BME280;5724;42.684;23.252;2023-02-13T02:05:05;96098.94;;;-2.05;100.00
11339;BME280;5724;42.684;23.252;2023-02-13T02:07:32;96093.94;;;-2.01;100.00
11339;BME280;5724;42.684;23.252;2023-02-13T02:10:01;96094.03;;;-1.96;100.00
11339;BME280;5724;42.684;23.252;2023-02-13T02:15:27;96088.09;;;-1.98;100.00
11339;BME280;5724;42.684;23.252;2023-02-13T02:17:53;96089.50;;;-1.95;100.00
11339;BME280;5724;42.684;23.252;2023-02-13T02:20:29;96089.84;;;-2.04;100.00
11339;BME280;5724;42.684;23.252;2023-02-13T02:33:32;96083.31;;;-1.96;100.00
11339;BME280;5724;42.684;23.252;2023-02-13T02:52:54;96106.38;;;-1.95;100.00
11339;BME280;5724;42.684;23.252;2023-02-13T02:55:30;96109.78;;;-1.99;100.00
11339;BME280;5724;42.684;23.252;2023-02-13T02:58:12;96112.56;;;-2.06;100.00
11339;BME280;5724;42.684;23.252;2023-02-13T03:01:17;96116.31;;;-2.07;100.00
11339;BME280;5724;42.684;23.252;2023-02-13T03:04:04;96116.63;;;-2.04;100.00
11339;BME280;5724;42.684;23.252;2023-02-13T03:06:52;96109.78;;;-1.99;100.00
11339;BME280;5724;42.684;23.252;2023-02-13T03:09:22;96111.63;;;-2.00;100.00
11339;BME280;5724;42.684;23.252;2023-02-13T03:12:10;96118.63;;;-1.99;100.00
11339;BME280;5724;42.684;23.252;2023-02-13T03:14:56;96112.78;;;-1.96;100.00
11339;BME280;5724;42.684;23.252;2023-02-13T03:17:21;96105.09;;;-1.92;100.00
11339;BME280;5724;42.684;23.252;2023-02-13T03:20:19;96103.84;;;-2.02;100.00
11339;BME280;5724;42.684;23.252;2023-02-13T03:23:45;96105.81;;;-1.97;100.00
11339;BME280;5724;42.684;23.252;2023-02-13T03:26:37;96120.38;;;-1.93;100.00
11339;BME280;5724;42.684;23.252;2023-02-13T03:35:23;96127.22;;;-1.97;100.00
11339;BME280;5724;42.684;23.252;2023-02-13T03:38:21;96122.44;;;-1.95;100.00
11339;BME280;5724;42.684;23.252;2023-02-13T03:40:51;96115.00;;;-1.93;100.00
11339;BME280;5724;42.684;23.252;2023-02-13T03:46:17;96108.72;;;-1.98;100.00
11339;BME280;5724;42.684;23.252;2023-02-13T03:48:44;96106.97;;;-2.05;100.00
11339;BME280;5724;42.684;23.252;2023-02-13T03:52:00;96118.13;;;-1.96;100.00
11339;BME280;5724;42.684;23.252;2023-02-13T03:54:51;96109.19;;;-2.02;100.00
11339;BME280;5724;42.684;23.252;2023-02-13T03:57:39;96110.81;;;-2.00;100.00
11339;BME280;5724;42.684;23.252;2023-02-13T04:00:28;96096.63;;;-2.01;100.00
11339;BME280;5724;42.684;23.252;2023-02-13T04:03:10;96107.66;;;-1.97;100.00
11339;BME280;5724;42.684;23.252;2023-02-13T04:05:42;96106.28;;;-2.00;100.00
11339;BME280;5724;42.684;23.252;2023-02-13T04:08:08;96112.94;;;-2.03;100.00
11339;BME280;5724;42.684;23.252;2023-02-13T04:10:36;96110.47;;;-2.04;100.00
11339;BME280;5724;42.684;23.252;2023-02-13T04:13:31;96106.75;;;-2.03;100.00
11339;BME280;5724;42.684;23.252;2023-02-13T04:18:36;96109.00;;;-2.12;100.00
11339;BME280;5724;42.684;23.252;2023-02-13T04:21:03;96116.22;;;-2.12;100.00
11339;BME280;5724;42.684;23.252;2023-02-13T04:23:29;96092.91;;;-2.23;100.00
11339;BME280;5724;42.684;23.252;2023-02-13T04:25:55;96113.53;;;-2.12;100.00
11339;BME280;5724;42.684;23.252;2023-02-13T04:28:21;96119.91;;;-2.13;100.00
11339;BME280;5724;42.684;23.252;2023-02-13T04:30:47;96111.88;;;-2.13;100.00
11339;BME280;5724;42.684;23.252;2023-02-13T04:33:14;96118.28;;;-2.14;100.00
11339;BME280;5724;42.684;23.252;2023-02-13T04:35:40;96125.25;;;-2.13;100.00
11339;BME280;5724;42.684;23.252;2023-02-13T04:38:05;96113.41;;;-2.17;100.00
11339;BME280;5724;42.684;23.252;2023-02-13T04:40:31;96112.56;;;-2.06;100.00
11339;BME280;5724;42.684;23.252;2023-02-13T04:42:56;96115.81;;;-2.04;100.00
11339;BME280;5724;42.684;23.252;2023-02-13T04:45:22;96108.84;;;-2.05;100.00
11339;BME280;5724;42.684;23.252;2023-02-13T04:47:54;96111.75;;;-2.07;100.00
11339;BME280;5724;42.684;23.252;2023-02-13T04:50:21;96040.50;;;-2.48;100.00
11339;BME280;5724;42.684;23.252;2023-02-13T04:52:49;96111.16;;;-1.97;100.00
11339;BME280;5724;42.684;23.252;2023-02-13T04:55:14;96117.09;;;-1.95;100.00
11339;BME280;5724;42.684;23.252;2023-02-13T04:57:40;96118.50;;;-1.92;100.00
11339;BME280;5724;42.684;23.252;2023-02-13T05:00:06;96123.50;;;-1.96;100.00
11339;BME280;5724;42.684;23.252;2023-02-13T05:02:32;96125.38;;;-1.96;100.00
11339;BME280;5724;42.684;23.252;2023-02-13T05:04:57;96136.19;;;-2.03;100.00
11339;BME280;5724;42.684;23.252;2023-02-13T05:07:23;96133.78;;;-2.16;100.00
11339;BME280;5724;42.684;23.252;2023-02-13T05:09:48;96132.16;;;-2.29;100.00
11339;BME280;5724;42.684;23.252;2023-02-13T05:12:14;96136.59;;;-2.35;100.00
11339;BME280;5724;42.684;23.252;2023-02-13T05:14:39;96137.88;;;-2.25;100.00
11339;BME280;5724;42.684;23.252;2023-02-13T05:17:05;96136.47;;;-2.28;100.00
11339;BME280;5724;42.684;23.252;2023-02-13T05:19:30;96143.13;;;-2.31;100.00
11339;BME280;5724;42.684;23.252;2023-02-13T05:21:56;96145.19;;;-2.33;100.00
11339;BME280;5724;42.684;23.252;2023-02-13T05:24:40;96149.88;;;-2.40;100.00
11339;BME280;5724;42.684;23.252;2023-02-13T05:27:05;96140.53;;;-2.25;100.00
11339;BME280;5724;42.684;23.252;2023-02-13T05:29:31;96154.50;;;-2.23;100.00
11339;BME280;5724;42.684;23.252;2023-02-13T05:31:57;96149.63;;;-2.26;100.00
11339;BME280;5724;42.684;23.252;2023-02-13T05:34:25;96151.97;;;-2.30;100.00
11339;BME280;5724;42.684;23.252;2023-02-13T05:36:51;96139.72;;;-2.26;100.00
11339;BME280;5724;42.684;23.252;2023-02-13T05:39:17;96152.44;;;-2.21;100.00
11339;BME280;5724;42.684;23.252;2023-02-13T05:41:44;96145.44;;;-2.11;100.00
11339;BME280;5724;42.684;23.252;2023-02-13T05:44:10;96156.00;;;-2.04;100.00
11339;BME280;5724;42.684;23.252;2023-02-13T05:46:36;96156.47;;;-2.07;100.00
11339;BME280;5724;42.684;23.252;2023-02-13T05:49:02;96159.16;;;-2.07;100.00
11339;BME280;5724;42.684;23.252;2023-02-13T05:51:28;96156.38;;;-2.12;100.00
11339;BME280;5724;42.684;23.252;2023-02-13T05:53:53;96165.31;;;-2.07;100.00
11339;BME280;5724;42.684;23.252;2023-02-13T05:56:18;96168.81;;;-2.06;100.00
11339;BME280;5724;42.684;23.252;2023-02-13T05:58:44;96169.06;;;-2.08;100.00
11339;BME280;5724;42.684;23.252;2023-02-13T06:01:10;96169.06;;;-2.08;100.00
11339;BME280;5724;42.684;23.252;2023-02-13T06:03:35;96165.22;;;-2.12;100.00
11339;BME280;5724;42.684;23.252;2023-02-13T06:06:01;96166.25;;;-2.13;100.00
11339;BME280;5724;42.684;23.252;2023-02-13T06:08:26;96170.56;;;-2.23;100.00
11339;BME280;5724;42.684;23.252;2023-02-13T06:10:52;96174.66;;;-2.21;100.00
11339;BME280;5724;42.684;23.252;2023-02-13T06:13:18;96170.22;;;-2.27;100.00
11339;BME280;5724;42.684;23.252;2023-02-13T06:15:43;96176.06;;;-2.30;100.00
11339;BME280;5724;42.684;23.252;2023-02-13T06:18:09;96177.44;;;-2.27;100.00
11339;BME280;5724;42.684;23.252;2023-02-13T06:20:35;96167.41;;;-2.44;100.00
11339;BME280;5724;42.684;23.252;2023-02-13T06:23:00;96182.91;;;-2.22;100.00
11339;BME280;5724;42.684;23.252;2023-02-13T06:25:26;96194.09;;;-2.25;100.00
11339;BME280;5724;42.684;23.252;2023-02-13T06:27:52;96187.69;;;-2.24;100.00
11339;BME280;5724;42.684;23.252;2023-02-13T06:30:18;96190.25;;;-2.29;100.00
11339;BME280;5724;42.684;23.252;2023-02-13T06:32:45;96187.69;;;-2.36;100.00
11339;BME280;5724;42.684;23.252;2023-02-13T06:35:11;96183.47;;;-2.32;100.00
11339;BME280;5724;42.684;23.252;2023-02-13T06:37:37;96189.31;;;-2.23;100.00
11339;BME280;5724;42.684;23.252;2023-02-13T06:40:05;96188.63;;;-2.19;100.00
11339;BME280;5724;42.684;23.252;2023-02-13T06:42:30;96195.94;;;-2.14;100.00
11339;BME280;5724;42.684;23.252;2023-02-13T06:44:56;96196.75;;;-2.14;100.00
11339;BME280;5724;42.684;23.252;2023-02-13T06:47:22;96186.16;;;-2.09;100.00
11339;BME280;5724;42.684;23.252;2023-02-13T06:49:47;96194.88;;;-1.90;100.00
11339;BME280;5724;42.684;23.252;2023-02-13T06:52:12;96190.69;;;-1.86;100.00
11339;BME280;5724;42.684;23.252;2023-02-13T06:54:38;96200.22;;;-1.78;100.00
11339;BME280;5724;42.684;23.252;2023-02-13T06:57:03;96196.38;;;-1.70;100.00
11339;BME280;5724;42.684;23.252;2023-02-13T06:59:29;96186.34;;;-1.63;100.00
11339;BME280;5724;42.684;23.252;2023-02-13T07:01:54;96187.59;;;-1.54;100.00
11339;BME280;5724;42.684;23.252;2023-02-13T07:04:20;96189.81;;;-1.51;100.00
11339;BME280;5724;42.684;23.252;2023-02-13T07:06:45;96192.50;;;-1.51;100.00
11339;BME280;5724;42.684;23.252;2023-02-13T07:09:10;96192.13;;;-1.43;100.00
11339;BME280;5724;42.684;23.252;2023-02-13T07:11:38;96189.56;;;-1.50;100.00
11339;BME280;5724;42.684;23.252;2023-02-13T07:14:06;96182.03;;;-1.36;100.00
11339;BME280;5724;42.684;23.252;2023-02-13T07:16:32;96186.75;;;-1.43;100.00
11339;BME280;5724;42.684;23.252;2023-02-13T07:18:58;96189.00;;;-1.52;100.00
11339;BME280;5724;42.684;23.252;2023-02-13T07:21:23;96193.75;;;-1.42;100.00
11339;BME280;5724;42.684;23.252;2023-02-13T07:23:50;96185.25;;;-1.51;100.00
11339;BME280;5724;42.684;23.252;2023-02-13T07:26:15;96199.91;;;-1.41;100.00
11339;BME280;5724;42.684;23.252;2023-02-13T07:28:41;96205.59;;;-1.38;100.00
11339;BME280;5724;42.684;23.252;2023-02-13T07:31:06;96200.72;;;-1.41;100.00
11339;BME280;5724;42.684;23.252;2023-02-13T07:33:33;96197.94;;;-1.46;100.00
11339;BME280;5724;42.684;23.252;2023-02-13T07:35:58;96195.63;;;-1.42;100.00
11339;BME280;5724;42.684;23.252;2023-02-13T07:38:25;96196.50;;;-1.37;100.00
11339;BME280;5724;42.684;23.252;2023-02-13T07:40:50;96179.41;;;-1.48;100.00
11339;BME280;5724;42.684;23.252;2023-02-13T07:43:15;96201.63;;;-1.24;100.00
11339;BME280;5724;42.684;23.252;2023-02-13T07:45:41;96200.00;;;-1.25;100.00
11339;BME280;5724;42.684;23.252;2023-02-13T07:48:07;96201.81;;;-1.13;100.00
11339;BME280;5724;42.684;23.252;2023-02-13T07:50:32;96190.88;;;-1.24;100.00
11339;BME280;5724;42.684;23.252;2023-02-13T07:52:59;96179.59;;;-1.37;100.00
11339;BME280;5724;42.684;23.252;2023-02-13T07:55:26;96202.44;;;-1.23;100.00
11339;BME280;5724;42.684;23.252;2023-02-13T07:57:53;96200.44;;;-1.28;99.62
11339;BME280;5724;42.684;23.252;2023-02-13T08:00:19;96194.75;;;-1.31;100.00
11339;BME280;5724;42.684;23.252;2023-02-13T08:02:45;96197.69;;;-1.33;100.00
11339;BME280;5724;42.684;23.252;2023-02-13T08:05:11;96201.25;;;-1.16;100.00
11339;BME280;5724;42.684;23.252;2023-02-13T08:07:36;96204.09;;;-1.05;99.63
11339;BME280;5724;42.684;23.252;2023-02-13T08:10:04;96215.78;;;-1.11;100.00
11339;BME280;5724;42.684;23.252;2023-02-13T08:12:50;96211.53;;;-1.24;99.75
11339;BME280;5724;42.684;23.252;2023-02-13T08:15:16;96200.81;;;-1.24;100.00
11339;BME280;5724;42.684;23.252;2023-02-13T08:17:41;96197.09;;;-1.35;99.69
11339;BME280;5724;42.684;23.252;2023-02-13T08:20:08;96193.91;;;-1.20;100.00
11339;BME280;5724;42.684;23.252;2023-02-13T08:22:35;96199.13;;;-1.13;100.00
11339;BME280;5724;42.684;23.252;2023-02-13T08:25:02;96200.31;;;-1.21;99.90
11339;BME280;5724;42.684;23.252;2023-02-13T08:27:27;96201.25;;;-1.27;99.74
11339;BME280;5724;42.684;23.252;2023-02-13T08:29:55;96194.81;;;-1.14;99.49
11339;BME280;5724;42.684;23.252;2023-02-13T08:32:21;96202.25;;;-1.17;99.44
11339;BME280;5724;42.684;23.252;2023-02-13T08:34:46;96192.94;;;-1.14;100.00
11339;BME280;5724;42.684;23.252;2023-02-13T08:37:12;96195.13;;;-1.11;100.00
11339;BME280;5724;42.684;23.252;2023-02-13T08:39:37;96200.81;;;-1.07;100.00
11339;BME280;5724;42.684;23.252;2023-02-13T08:42:03;96197.09;;;-1.06;100.00
11339;BME280;5724;42.684;23.252;2023-02-13T08:44:28;96196.13;;;-1.00;100.00
11339;BME280;5724;42.684;23.252;2023-02-13T08:46:55;96202.13;;;-1.10;100.00
11339;BME280;5724;42.684;23.252;2023-02-13T08:49:20;96192.22;;;-1.09;100.00
11339;BME280;5724;42.684;23.252;2023-02-13T08:51:48;96199.56;;;-1.05;100.00
11339;BME280;5724;42.684;23.252;2023-02-13T08:54:13;96202.25;;;-1.05;100.00
11339;BME280;5724;42.684;23.252;2023-02-13T08:56:39;96206.06;;;-1.01;100.00
11339;BME280;5724;42.684;23.252;2023-02-13T08:59:05;96194.38;;;-0.95;100.00
11339;BME280;5724;42.684;23.252;2023-02-13T09:01:30;96194.00;;;-0.87;100.00
11339;BME280;5724;42.684;23.252;2023-02-13T09:03:56;96197.94;;;-0.89;100.00
11339;BME280;5724;42.684;23.252;2023-02-13T09:06:21;96197.50;;;-0.86;100.00
11339;BME280;5724;42.684;23.252;2023-02-13T09:08:47;96195.94;;;-0.82;100.00
11339;BME280;5724;42.684;23.252;2023-02-13T09:11:12;96190.97;;;-0.90;98.24
11339;BME280;5724;42.684;23.252;2023-02-13T09:13:38;96196.22;;;-0.67;97.62
11339;BME280;5724;42.684;23.252;2023-02-13T09:16:05;96199.72;;;-0.66;97.29
11339;BME280;5724;42.684;23.252;2023-02-13T09:18:31;96196.28;;;-0.62;98.60
11339;BME280;5724;42.684;23.252;2023-02-13T09:21:02;96188.38;;;-0.68;97.85
11339;BME280;5724;42.684;23.252;2023-02-13T09:23:32;96203.63;;;-0.57;98.97
11339;BME280;5724;42.684;23.252;2023-02-13T09:26:03;96194.50;;;-0.39;99.92
11339;BME280;5724;42.684;23.252;2023-02-13T09:28:30;96195.09;;;-0.37;97.68
11339;BME280;5724;42.684;23.252;2023-02-13T09:30:56;96198.34;;;-0.35;98.02
11339;BME280;5724;42.684;23.252;2023-02-13T09:33:22;96186.78;;;-0.52;99.30
11339;BME280;5724;42.684;23.252;2023-02-13T09:35:47;96197.19;;;-0.22;97.61
11339;BME280;5724;42.684;23.252;2023-02-13T09:38:13;96186.69;;;-0.24;94.73
11339;BME280;5724;42.684;23.252;2023-02-13T09:40:52;96171.53;;;-0.30;93.83
11339;BME280;5724;42.684;23.252;2023-02-13T09:43:30;96181.63;;;-0.04;94.20
11339;BME280;5724;42.684;23.252;2023-02-13T09:46:44;96176.66;;;-0.12;93.55
11339;BME280;5724;42.684;23.252;2023-02-13T09:48:47;96177.97;;;0.03;93.24
11339;BME280;5724;42.684;23.252;2023-02-13T09:51:17;96178.16;;;0.18;92.94
11339;BME280;5724;42.684;23.252;2023-02-13T09:53:51;96172.19;;;0.33;92.45
11339;BME280;5724;42.684;23.252;2023-02-13T10:02:17;96165.72;;;0.12;94.03
11339;BME280;5724;42.684;23.252;2023-02-13T10:07:47;96157.28;;;0.03;93.30
11339;BME280;5724;42.684;23.252;2023-02-13T10:13:20;96145.72;;;0.03;91.82
11339;BME280;5724;42.684;23.252;2023-02-13T10:16:28;96141.28;;;0.35;91.42
11339;BME280;5724;42.684;23.252;2023-02-13T10:19:13;96134.16;;;0.46;90.96
11339;BME280;5724;42.684;23.252;2023-02-13T10:21:54;96128.97;;;0.39;90.95
11339;BME280;5724;42.684;23.252;2023-02-13T10:24:33;96134.00;;;0.57;90.56
11339;BME280;5724;42.684;23.252;2023-02-13T10:27:05;96116.72;;;0.48;88.54
11339;BME280;5724;42.684;23.252;2023-02-13T10:29:45;96116.34;;;0.89;87.99
11339;BME280;5724;42.684;23.252;2023-02-13T10:35:25;96111.41;;;0.80;88.13
11339;BME280;5724;42.684;23.252;2023-02-13T10:37:54;96115.00;;;0.91;88.58
11339;BME280;5724;42.684;23.252;2023-02-13T10:40:30;96046.91;;;0.59;87.99
11339;BME280;5724;42.684;23.252;2023-02-13T10:43:11;96096.41;;;1.17;85.80
11339;BME280;5724;42.684;23.252;2023-02-13T11:01:38;96085.06;;;1.47;82.66
11339;BME280;5724;42.684;23.252;2023-02-13T11:04:13;96076.22;;;1.51;81.90
11339;BME280;5724;42.684;23.252;2023-02-13T11:06:48;96071.41;;;1.58;81.68
11339;BME280;5724;42.684;23.252;2023-02-13T11:09:15;96067.50;;;1.81;81.53
11339;BME280;5724;42.684;23.252;2023-02-13T11:11:42;96064.56;;;1.88;80.94
11339;BME280;5724;42.684;23.252;2023-02-13T11:14:24;96070.50;;;1.90;79.91
11339;BME280;5724;42.684;23.252;2023-02-13T11:17:02;96063.50;;;1.89;80.74
11339;BME280;5724;42.684;23.252;2023-02-13T11:19:59;96055.59;;;2.24;79.30
11339;BME280;5724;42.684;23.252;2023-02-13T11:22:33;96049.69;;;2.38;79.32
11339;BME280;5724;42.684;23.252;2023-02-13T11:25:16;96041.69;;;2.63;78.40
11339;BME280;5724;42.684;23.252;2023-02-13T11:27:42;96047.09;;;2.88;77.33
11339;BME280;5724;42.684;23.252;2023-02-13T11:30:36;96055.50;;;3.58;75.36
11339;BME280;5724;42.684;23.252;2023-02-13T11:33:26;96032.22;;;3.67;72.88
11339;BME280;5724;42.684;23.252;2023-02-13T11:36:05;96026.03;;;3.36;72.60
11339;BME280;5724;42.684;23.252;2023-02-13T11:38:31;95998.50;;;2.99;74.06
11339;BME280;5724;42.684;23.252;2023-02-13T11:41:14;96010.41;;;3.13;73.31
11339;BME280;5724;42.684;23.252;2023-02-13T11:43:47;96008.78;;;3.22;72.28
11339;BME280;5724;42.684;23.252;2023-02-13T11:46:18;96015.78;;;3.33;71.20
11339;BME280;5724;42.684;23.252;2023-02-13T11:51:44;95997.94;;;3.42;70.01
11339;BME280;5724;42.684;23.252;2023-02-13T11:54:35;95990.09;;;3.51;69.90
11339;BME280;5724;42.684;23.252;2023-02-13T11:59:45;95985.75;;;3.55;69.77
11339;BME280;5724;42.684;23.252;2023-02-13T12:02:42;95973.00;;;3.71;69.15
11339;BME280;5724;42.684;23.252;2023-02-13T12:05:20;95977.91;;;3.59;67.38
11339;BME280;5724;42.684;23.252;2023-02-13T12:07:47;95969.25;;;3.62;68.66
11339;BME280;5724;42.684;23.252;2023-02-13T12:13:08;95964.66;;;3.62;67.85
11339;BME280;5724;42.684;23.252;2023-02-13T12:15:38;95954.38;;;3.69;67.51
11339;BME280;5724;42.684;23.252;2023-02-13T12:20:46;95953.44;;;4.49;66.34
11339;BME280;5724;42.684;23.252;2023-02-13T12:23:37;95956.88;;;4.59;65.00
11339;BME280;5724;42.684;23.252;2023-02-13T12:26:56;95956.44;;;4.42;64.47
11339;BME280;5724;42.684;23.252;2023-02-13T12:29:21;95964.34;;;4.34;64.37
11339;BME280;5724;42.684;23.252;2023-02-13T12:32:00;95953.69;;;4.08;63.72
11339;BME280;5724;42.684;23.252;2023-02-13T12:38:06;95949.31;;;4.17;63.08
11339;BME280;5724;42.684;23.252;2023-02-13T12:40:29;95939.00;;;4.19;62.49
11339;BME280;5724;42.684;23.252;2023-02-13T13:14:00;95906.53;;;4.58;60.62
11339;BME280;5724;42.684;23.252;2023-02-13T13:19:39;95899.81;;;4.56;60.69
11339;BME280;5724;42.684;23.252;2023-02-13T13:22:22;95894.03;;;4.68;61.18
11339;BME280;5724;42.684;23.252;2023-02-13T13:27:38;95897.63;;;4.53;61.51
11339;BME280;5724;42.684;23.252;2023-02-13T13:30:13;95888.50;;;4.44;60.93
11339;BME280;5724;42.684;23.252;2023-02-13T13:32:43;95882.84;;;4.40;61.66
11339;BME280;5724;42.684;23.252;2023-02-13T13:35:14;95900.22;;;4.34;61.67
11339;BME280;5724;42.684;23.252;2023-02-13T13:37:55;95878.03;;;4.37;61.09
11339;BME280;5724;42.684;23.252;2023-02-13T13:52:32;95887.47;;;4.40;61.61
11339;BME280;5724;42.684;23.252;2023-02-13T13:55:00;95895.81;;;4.43;61.03
11339;BME280;5724;42.684;23.252;2023-02-13T14:07:38;95886.63;;;4.78;60.93
11339;BME280;5724;42.684;23.252;2023-02-13T14:29:14;95863.34;;;4.77;60.38
11339;BME280;5724;42.684;23.252;2023-02-13T14:31:42;95858.41;;;4.55;60.14
11339;BME280;5724;42.684;23.252;2023-02-13T14:34:19;95856.50;;;4.56;60.99
11339;BME280;5724;42.684;23.252;2023-02-13T14:39:31;95856.50;;;4.56;60.50
11339;BME280;5724;42.684;23.252;2023-02-13T14:42:00;95862.31;;;4.34;61.07
11339;BME280;5724;42.684;23.252;2023-02-13T14:47:01;95853.22;;;4.25;61.41
11339;BME280;5724;42.684;23.252;2023-02-13T14:49:31;95856.19;;;4.23;61.74
11339;BME280;5724;42.684;23.252;2023-02-13T14:52:02;95859.75;;;4.19;61.35
11339;BME280;5724;42.684;23.252;2023-02-13T14:54:33;95862.44;;;4.19;61.98
11339;BME280;5724;42.684;23.252;2023-02-13T14:57:17;95859.81;;;4.09;61.98
11339;BME280;5724;42.684;23.252;2023-02-13T14:59:49;95852.00;;;4.07;61.93
11339;BME280;5724;42.684;23.252;2023-02-13T15:02:57;95851.47;;;4.00;62.05
11339;BME280;5724;42.684;23.252;2023-02-13T15:05:16;95856.66;;;3.96;61.56
11339;BME280;5724;42.684;23.252;2023-02-13T15:08:05;95849.13;;;3.88;62.29
11339;BME280;5724;42.684;23.252;2023-02-13T15:10:48;95843.50;;;3.74;62.55
11339;BME280;5724;42.684;23.252;2023-02-13T15:15:54;95857.06;;;3.69;62.67
11339;BME280;5724;42.684;23.252;2023-02-13T15:18:23;95856.28;;;3.64;63.30
11339;BME280;5724;42.684;23.252;2023-02-13T15:20:52;95852.47;;;3.65;63.59
11339;BME280;5724;42.684;23.252;2023-02-13T15:23:28;95859.28;;;3.57;63.98
11339;BME280;5724;42.684;23.252;2023-02-13T15:26:05;95852.03;;;3.48;64.30
11339;BME280;5724;42.684;23.252;2023-02-13T15:28:33;95859.09;;;3.38;64.80
11339;BME280;5724;42.684;23.252;2023-02-13T15:31:00;95860.75;;;3.29;64.78
11339;BME280;5724;42.684;23.252;2023-02-13T15:33:28;95858.66;;;3.11;65.57
11339;BME280;5724;42.684;23.252;2023-02-13T15:36:05;95859.72;;;3.10;66.03
11339;BME280;5724;42.684;23.252;2023-02-13T15:38:32;95856.78;;;2.96;66.12
11339;BME280;5724;42.684;23.252;2023-02-13T15:41:17;95854.63;;;2.93;66.54
11339;BME280;5724;42.684;23.252;2023-02-13T15:43:49;95869.72;;;2.89;67.02
11339;BME280;5724;42.684;23.252;2023-02-13T15:48:42;95872.19;;;2.75;67.49
11339;BME280;5724;42.684;23.252;2023-02-13T15:51:08;95879.22;;;2.66;67.76
11339;BME280;5724;42.684;23.252;2023-02-13T15:53:33;95878.16;;;2.47;67.95
11339;BME280;5724;42.684;23.252;2023-02-13T15:56:04;95874.91;;;2.40;68.22
11339;BME280;5724;42.684;23.252;2023-02-13T15:58:31;95874.91;;;2.50;68.49
11339;BME280;5724;42.684;23.252;2023-02-13T16:01:08;95880.84;;;2.37;68.76
11339;BME280;5724;42.684;23.252;2023-02-13T16:03:35;95822.56;;;1.85;69.30
11339;BME280;5724;42.684;23.252;2023-02-13T16:06:03;95879.47;;;2.14;70.10
11339;BME280;5724;42.684;23.252;2023-02-13T16:08:36;95877.56;;;1.99;71.16
11339;BME280;5724;42.684;23.252;2023-02-13T16:11:39;95881.06;;;1.94;71.32
11339;BME280;5724;42.684;23.252;2023-02-13T16:14:18;95877.00;;;1.87;71.68
11339;BME280;5724;42.684;23.252;2023-02-13T16:21:55;95881.56;;;1.76;71.91